Time;durP1;ratioP1;P1;durP2;ratioP2;P2;SDS_P1;SDS_P2;PMS_P1;PMS_P2;Temp;Humidity;BMP_temperature;BMP_pressure;BME280_temperature;BME280_humidity;BME280_pressure;Samples;Min_cycle;Max_cycle;Signal;HPM_P1;HPM_P2
2022/09/14 00:01:54;;;;;;;9.67;5.77;;;14.40;1.00;;;;;;4410436;28;660798;-66
2022/09/14 00:04:41;;;;;;;10.03;5.53;;;14.40;1.00;;;;;;4390533;28;657623;-65
2022/09/14 00:07:29;;;;;;;13.30;5.47;;;14.40;99.90;;;;;;4409100;28;659088;-65
2022/09/14 00:10:16;;;;;;;11.17;5.87;;;14.50;99.90;;;;;;4391154;28;659903;-66
2022/09/14 00:13:03;;;;;;;8.53;5.97;;;14.50;99.90;;;;;;4411210;28;660553;-66
2022/09/14 00:15:50;;;;;;;7.97;5.37;;;14.40;99.90;;;;;;4391676;28;658232;-65
2022/09/14 00:18:39;;;;;;;8.13;4.97;;;14.40;99.90;;;;;;4410584;28;659858;-65
2022/09/14 00:21:26;;;;;;;7.83;5.60;;;14.40;99.90;;;;;;4382436;28;658755;-65
2022/09/14 00:24:14;;;;;;;10.53;5.70;;;14.20;1.00;;;;;;4415468;28;659479;-65
2022/09/14 00:27:02;;;;;;;8.70;5.17;;;14.30;99.90;;;;;;4391457;28;659636;-65
2022/09/14 00:29:49;;;;;;;8.43;4.70;;;14.30;99.90;;;;;;4414115;28;657919;-65
2022/09/14 00:32:36;;;;;;;14.87;5.83;;;14.20;1.00;;;;;;4386595;28;658694;-65
2022/09/14 00:35:24;;;;;;;11.83;5.70;;;14.20;99.90;;;;;;4410927;28;658546;-66
2022/09/14 00:38:11;;;;;;;10.17;5.57;;;14.20;1.00;;;;;;4382000;28;659648;-65
2022/09/14 00:40:58;;;;;;;9.20;5.43;;;14.20;1.00;;;;;;4409411;28;659083;-65
2022/09/14 00:43:55;;;;;;;7.43;5.20;;;14.10;1.00;;;;;;4392085;28;657686;-65
2022/09/14 00:46:44;;;;;;;9.53;5.00;;;14.10;99.90;;;;;;4362635;28;658639;-65
2022/09/14 00:49:33;;;;;;;7.87;5.13;;;14.10;99.90;;;;;;4390208;28;658654;-65
2022/09/14 00:52:24;;;;;;;7.80;5.10;;;14.10;99.90;;;;;;4399316;28;658342;-65
2022/09/14 00:55:13;;;;;;;10.40;5.50;;;14.20;99.90;;;;;;4383387;28;658483;-66
2022/09/14 00:58:00;;;;;;;12.27;5.93;;;14.20;1.00;;;;;;4390412;28;659961;-65
2022/09/14 01:00:48;;;;;;;9.77;5.30;;;14.20;99.90;;;;;;4408527;28;659587;-65
2022/09/14 01:03:35;;;;;;;7.00;5.30;;;14.20;1.00;;;;;;4402962;28;659395;-65
2022/09/14 01:06:26;;;;;;;12.70;5.32;;;14.20;1.00;;;;;;4411763;28;657539;-65
2022/09/14 01:09:20;;;;;;;8.97;5.40;;;14.20;99.90;;;;;;4386068;28;659109;-65
2022/09/14 01:12:13;;;;;;;8.87;5.90;;;14.20;1.00;;;;;;4361774;28;660026;-66
2022/09/14 01:15:03;;;;;;;8.43;5.93;;;14.40;99.90;;;;;;4402398;28;657816;-65
2022/09/14 01:17:53;;;;;;;9.85;5.63;;;14.40;99.90;;;;;;4393855;28;658467;-65
2022/09/14 01:20:43;;;;;;;6.67;5.30;;;14.40;99.90;;;;;;4388272;28;658748;-65
2022/09/14 01:23:36;;;;;;;12.77;5.63;;;14.20;99.90;;;;;;4389226;28;658750;-65
2022/09/14 01:26:54;;;;;;;7.57;5.30;;;14.20;1.00;;;;;;4385217;28;660274;-65
2022/09/14 01:29:44;;;;;;;5.90;4.73;;;14.10;1.00;;;;;;4365614;28;657897;-65
2022/09/14 01:32:34;;;;;;;10.43;5.37;;;14.00;1.00;;;;;;4390564;28;659207;-65
2022/09/14 01:35:24;;;;;;;10.53;5.17;;;14.00;18.00;;;;;;4394624;28;658837;-66
2022/09/14 01:38:15;;;;;;;9.63;6.33;;;13.80;1.00;;;;;;4388325;28;659893;-65
2022/09/14 01:41:04;;;;;;;8.70;5.50;;;13.70;1.00;;;;;;4383006;28;658206;-65
2022/09/14 01:43:54;;;;;;;9.33;5.80;;;13.70;1.00;;;;;;4386933;28;659354;-65
2022/09/14 01:46:44;;;;;;;9.47;5.60;;;13.70;99.90;;;;;;4388353;28;657508;-65
2022/09/14 01:49:33;;;;;;;8.87;6.00;;;13.50;1.00;;;;;;4387347;28;658678;-65
2022/09/14 01:52:21;;;;;;;6.17;4.93;;;13.50;99.90;;;;;;4392776;28;657394;-65
2022/09/14 01:55:11;;;;;;;9.73;5.23;;;13.50;99.90;;;;;;4401495;28;658569;-66
2022/09/14 01:58:00;;;;;;;9.00;5.63;;;13.50;99.90;;;;;;4386485;28;659488;-65
2022/09/14 02:00:47;;;;;;;7.70;5.40;;;13.40;99.90;;;;;;4385480;28;659371;-66
2022/09/14 02:03:37;;;;;;;9.00;5.70;;;13.30;56.60;;;;;;4406828;28;658660;-65
2022/09/14 02:06:27;;;;;;;11.20;6.73;;;13.30;99.90;;;;;;4405402;28;658738;-65
2022/09/14 02:09:16;;;;;;;8.13;5.90;;;13.40;99.90;;;;;;4403599;28;660179;-65
2022/09/14 02:12:04;;;;;;;7.23;5.57;;;13.30;99.90;;;;;;4380979;28;659222;-66
2022/09/14 02:14:51;;;;;;;10.17;5.77;;;13.30;99.90;;;;;;4389794;28;658554;-65
2022/09/14 02:17:38;;;;;;;9.32;6.63;;;13.20;99.90;;;;;;4405155;28;660744;-66
2022/09/14 02:20:42;;;;;;;9.00;6.20;;;13.20;99.90;;;;;;4386813;28;658536;-65
2022/09/14 02:23:29;;;;;;;9.03;6.73;;;13.30;74.60;;;;;;4383111;28;658723;-65
2022/09/14 02:26:16;;;;;;;11.13;6.60;;;13.30;87.00;;;;;;4385854;28;658566;-65
2022/09/14 02:29:03;;;;;;;8.27;6.07;;;13.20;99.90;;;;;;4404836;28;660609;-65
2022/09/14 02:31:57;;;;;;;11.03;6.47;;;13.20;99.90;;;;;;4388748;28;658850;-65
2022/09/14 02:34:52;;;;;;;9.47;6.80;;;13.10;99.90;;;;;;4383450;28;659853;-65
2022/09/14 02:37:45;;;;;;;12.47;7.10;;;13.10;99.90;;;;;;4406884;28;659364;-65
2022/09/14 02:40:34;;;;;;;9.83;6.20;;;13.00;99.90;;;;;;4357700;28;660193;-65
2022/09/14 02:43:28;;;;;;;9.20;6.57;;;12.90;99.90;;;;;;4386429;28;658836;-65
2022/09/14 02:46:17;;;;;;;12.37;6.47;;;12.90;99.90;;;;;;4372261;28;658850;-65
2022/09/14 02:49:08;;;;;;;9.77;6.83;;;12.80;99.90;;;;;;4405620;28;660506;-66
2022/09/14 02:51:58;;;;;;;14.77;7.30;;;12.80;99.90;;;;;;4377662;28;659559;-65
2022/09/14 02:54:50;;;;;;;12.40;6.60;;;12.70;99.90;;;;;;4387604;28;659480;-65
2022/09/14 02:58:05;;;;;;;12.10;6.17;;;12.70;99.90;;;;;;4386621;28;660320;-65
2022/09/14 03:00:52;;;;;;;10.50;7.33;;;12.60;99.90;;;;;;4345101;28;659920;-65
2022/09/14 03:03:39;;;;;;;9.63;6.90;;;12.60;99.90;;;;;;4404479;28;659748;-65
2022/09/14 03:06:26;;;;;;;9.73;6.90;;;12.50;99.90;;;;;;4383822;28;658513;-65
2022/09/14 03:09:13;;;;;;;8.57;6.60;;;12.50;99.90;;;;;;4403126;28;658830;-66
2022/09/14 03:12:02;;;;;;;11.57;7.20;;;12.50;99.90;;;;;;4387377;28;658902;-66
2022/09/14 03:14:50;;;;;;;14.80;7.20;;;12.40;99.90;;;;;;4403829;28;659886;-65
2022/09/14 03:17:37;;;;;;;10.80;6.97;;;12.30;99.90;;;;;;4409100;28;659461;-65
2022/09/14 03:20:25;;;;;;;11.53;6.60;;;12.30;99.90;;;;;;4400510;28;659975;-65
2022/09/14 03:23:13;;;;;;;19.00;6.73;;;12.20;99.90;;;;;;4376452;28;659909;-65
2022/09/14 03:26:00;;;;;;;12.47;7.27;;;12.10;99.90;;;;;;4396579;28;660019;-65
2022/09/14 03:28:51;;;;;;;12.40;8.07;;;12.10;99.90;;;;;;4408919;28;659572;-66
2022/09/14 03:31:38;;;;;;;14.17;8.80;;;12.10;99.90;;;;;;4380302;28;660655;-65
2022/09/14 03:34:25;;;;;;;10.97;7.50;;;12.00;99.90;;;;;;4383031;28;660500;-65
2022/09/14 03:37:12;;;;;;;14.60;7.90;;;12.10;99.90;;;;;;4397343;28;661496;-65
2022/09/14 03:40:00;;;;;;;10.67;7.00;;;12.00;99.90;;;;;;4399775;28;660138;-65
2022/09/14 03:42:48;;;;;;;10.40;7.10;;;12.00;99.90;;;;;;4406337;28;660585;-65
2022/09/14 03:45:38;;;;;;;9.30;6.90;;;12.00;99.90;;;;;;4383122;28;659960;-65
2022/09/14 03:48:25;;;;;;;8.53;7.10;;;11.90;99.90;;;;;;4394443;28;658747;-65
2022/09/14 03:51:13;;;;;;;13.37;8.63;;;11.90;99.90;;;;;;4404836;28;659326;-66
2022/09/14 03:54:00;;;;;;;8.70;7.20;;;11.80;99.90;;;;;;4390303;28;659531;-65
2022/09/14 03:56:47;;;;;;;11.10;6.73;;;11.80;99.90;;;;;;4409652;28;658628;-65
2022/09/14 03:59:34;;;;;;;10.77;6.57;;;11.80;99.90;;;;;;4402400;28;659945;-65
2022/09/14 04:02:23;;;;;;;10.83;6.63;;;11.90;99.90;;;;;;4378258;28;659488;-65
2022/09/14 04:05:10;;;;;;;11.80;6.63;;;11.90;99.90;;;;;;4390056;28;659682;-65
2022/09/14 04:07:57;;;;;;;11.43;7.00;;;11.80;99.90;;;;;;4407889;28;659865;-66
2022/09/14 04:10:45;;;;;;;12.07;7.27;;;11.80;99.90;;;;;;4401185;28;659817;-65
2022/09/14 04:13:32;;;;;;;9.03;7.07;;;11.80;99.90;;;;;;4408022;28;660101;-65
2022/09/14 04:16:20;;;;;;;15.80;7.03;;;11.80;99.90;;;;;;4404590;28;659232;-66
2022/09/14 04:19:08;;;;;;;13.63;7.20;;;11.80;99.90;;;;;;4384572;28;661366;-65
2022/09/14 04:21:55;;;;;;;11.70;7.43;;;11.80;99.90;;;;;;4389468;28;660620;-65
2022/09/14 04:24:43;;;;;;;13.50;7.90;;;11.80;99.90;;;;;;4408295;28;660827;-66
2022/09/14 04:27:30;;;;;;;10.63;7.07;;;11.80;99.90;;;;;;4400261;28;660085;-65
2022/09/14 04:30:17;;;;;;;10.37;7.23;;;11.80;99.90;;;;;;4412425;28;660546;-66
2022/09/14 04:33:04;;;;;;;10.27;7.23;;;11.80;99.90;;;;;;4406529;28;659697;-67
2022/09/14 04:36:00;;;;;;;17.53;7.00;;;11.70;99.90;;;;;;4386374;28;659699;-66
2022/09/14 04:38:47;;;;;;;11.67;7.40;;;11.80;99.90;;;;;;4360769;28;661115;-65
2022/09/14 04:41:34;;;;;;;15.60;8.43;;;11.70;99.90;;;;;;4404800;28;659504;-65
2022/09/14 04:44:21;;;;;;;10.50;8.50;;;11.80;99.90;;;;;;4383096;28;659683;-66
2022/09/14 04:47:09;;;;;;;14.57;6.97;;;11.80;99.90;;;;;;4408855;28;660120;-66
2022/09/14 04:49:56;;;;;;;13.57;8.20;;;11.80;99.90;;;;;;4389376;28;660178;-65
2022/09/14 04:52:44;;;;;;;14.53;8.43;;;11.90;99.90;;;;;;4406879;28;660571;-65
2022/09/14 04:55:31;;;;;;;11.87;8.17;;;11.90;99.90;;;;;;4389202;28;659943;-65
2022/09/14 04:58:18;;;;;;;15.73;9.53;;;12.00;99.90;;;;;;4409168;28;659991;-65
2022/09/14 05:01:07;;;;;;;16.20;8.00;;;12.10;99.90;;;;;;4388600;28;660201;-65
2022/09/14 05:03:54;;;;;;;12.83;8.30;;;12.10;99.90;;;;;;4408440;28;661450;-65
2022/09/14 05:06:43;;;;;;;14.57;7.47;;;12.20;99.90;;;;;;4387149;28;659827;-66
2022/09/14 05:09:31;;;;;;;13.20;7.97;;;12.20;99.90;;;;;;4395602;28;659531;-65
2022/09/14 05:12:19;;;;;;;13.93;8.30;;;12.30;99.90;;;;;;4407963;28;659337;-66
2022/09/14 05:15:07;;;;;;;12.10;7.33;;;12.40;99.90;;;;;;4390755;28;659745;-66
2022/09/14 05:17:54;;;;;;;11.47;8.70;;;12.40;99.90;;;;;;4406579;28;660018;-66
2022/09/14 05:20:41;;;;;;;12.52;8.20;;;12.50;99.90;;;;;;4389822;28;659775;-65
2022/09/14 05:23:28;;;;;;;11.17;7.73;;;12.60;99.90;;;;;;4405258;28;661095;-66
2022/09/14 05:26:17;;;;;;;18.33;7.97;;;12.60;99.90;;;;;;4384758;28;660013;-66
2022/09/14 05:29:04;;;;;;;12.67;8.60;;;12.70;99.90;;;;;;4406580;28;659962;-66
2022/09/14 05:31:51;;;;;;;12.97;7.73;;;12.80;99.90;;;;;;4388186;28;659604;-65
2022/09/14 05:34:38;;;;;;;12.47;7.93;;;12.80;99.90;;;;;;4407834;28;660848;-66
2022/09/14 05:37:25;;;;;;;15.60;8.48;;;12.80;99.90;;;;;;4385462;28;659946;-65
2022/09/14 05:40:12;;;;;;;12.03;8.50;;;13.00;99.90;;;;;;4409650;28;660748;-65
2022/09/14 05:43:01;;;;;;;18.17;8.03;;;13.10;99.90;;;;;;4406454;28;659803;-66
2022/09/14 05:45:48;;;;;;;20.77;14.00;;;13.20;99.90;;;;;;4380408;28;660549;-66
2022/09/14 05:48:35;;;;;;;15.80;11.60;;;13.50;99.90;;;;;;4388480;28;661368;-65
2022/09/14 05:51:23;;;;;;;18.67;11.13;;;13.90;99.90;;;;;;4401940;28;662311;-66
2022/09/14 05:54:11;;;;;;;16.13;10.43;;;14.20;99.90;;;;;;4382773;28;661439;-66
2022/09/14 05:56:58;;;;;;;18.77;11.10;;;14.40;99.90;;;;;;4406481;28;661081;-66
2022/09/14 05:59:46;;;;;;;17.07;9.57;;;14.60;99.90;;;;;;4388286;28;660653;-66
2022/09/14 06:02:33;;;;;;;9.90;7.13;;;15.00;99.90;;;;;;4402000;28;660011;-66
2022/09/14 06:05:21;;;;;;;7.83;4.90;;;15.20;99.90;;;;;;4386095;28;659041;-65
2022/09/14 06:08:08;;;;;;;9.10;5.97;;;15.30;99.90;;;;;;4406316;28;659824;-65
2022/09/14 06:10:55;;;;;;;12.47;6.30;;;15.30;99.90;;;;;;4384668;28;658806;-65
2022/09/14 06:13:42;;;;;;;8.47;5.80;;;15.20;99.90;;;;;;4404512;28;660344;-65
2022/09/14 06:16:31;;;;;;;11.57;6.80;;;15.30;99.90;;;;;;4402357;28;658392;-66
2022/09/14 06:19:18;;;;;;;13.00;6.07;;;15.50;99.90;;;;;;4378998;28;660514;-65
2022/09/14 06:22:05;;;;;;;9.73;6.67;;;15.70;99.90;;;;;;4383710;28;659495;-65
2022/09/14 06:24:52;;;;;;;7.67;4.97;;;15.80;99.90;;;;;;4409216;28;658613;-66
2022/09/14 06:27:39;;;;;;;10.27;5.90;;;16.00;99.90;;;;;;4402573;28;659324;-65
2022/09/14 06:30:26;;;;;;;9.80;5.60;;;16.20;99.90;;;;;;4374562;28;661460;-65
2022/09/14 06:33:15;;;;;;;11.33;5.10;;;16.30;99.90;;;;;;4403342;28;658929;-66
2022/09/14 06:36:03;;;;;;;9.63;5.60;;;16.30;99.90;;;;;;4379870;28;659510;-67
2022/09/14 06:38:50;;;;;;;8.25;5.20;;;16.20;99.90;;;;;;4380500;28;658500;-65
2022/09/14 06:41:37;;;;;;;10.63;5.80;;;16.20;99.90;;;;;;4405795;28;658808;-66
2022/09/14 06:44:25;;;;;;;9.83;5.67;;;16.30;99.90;;;;;;4402482;28;659278;-65
2022/09/14 06:47:12;;;;;;;10.70;6.13;;;16.30;99.90;;;;;;4382047;28;660023;-66
2022/09/14 06:50:00;;;;;;;8.20;5.70;;;16.50;99.90;;;;;;4404981;28;660287;-66
2022/09/14 06:52:47;;;;;;;10.27;6.00;;;16.50;99.90;;;;;;4384409;28;659919;-66
2022/09/14 06:55:34;;;;;;;9.70;6.10;;;16.60;99.90;;;;;;4402186;28;659879;-65
2022/09/14 06:58:22;;;;;;;7.73;5.47;;;16.90;99.90;;;;;;4382016;28;659716;-65
2022/09/14 07:01:11;;;;;;;8.10;5.60;;;17.10;99.90;;;;;;4404758;28;659051;-65
2022/09/14 07:03:59;;;;;;;11.00;5.60;;;17.00;99.90;;;;;;4381755;28;659202;-66
2022/09/14 07:06:48;;;;;;;11.13;5.90;;;16.80;99.90;;;;;;4380302;28;659762;-65
2022/09/14 07:09:36;;;;;;;10.27;5.10;;;17.00;99.90;;;;;;4382892;28;659681;-65
2022/09/14 07:12:23;;;;;;;8.07;4.97;;;17.40;99.90;;;;;;4395257;28;660207;-65
2022/09/14 07:15:11;;;;;;;14.67;5.53;;;17.60;99.90;;;;;;4381331;28;658506;-65
2022/09/14 07:17:58;;;;;;;13.40;6.07;;;17.60;99.90;;;;;;4406709;28;660083;-66
2022/09/14 07:20:45;;;;;;;12.10;5.47;;;17.50;99.90;;;;;;4388929;28;659573;-65
2022/09/14 07:23:35;;;;;;;11.83;5.97;;;17.50;99.90;;;;;;4403440;28;660887;-65
2022/09/14 07:26:22;;;;;;;9.20;5.60;;;17.60;99.90;;;;;;4382988;28;660415;-66
2022/09/14 07:29:11;;;;;;;10.33;5.37;;;17.80;99.90;;;;;;4395145;28;658294;-65
2022/09/14 07:31:58;;;;;;;8.90;5.43;;;18.00;99.90;;;;;;4401242;28;660782;-66
2022/09/14 07:34:45;;;;;;;7.43;4.70;;;18.00;99.90;;;;;;4384193;28;658702;-65
2022/09/14 07:37:32;;;;;;;9.20;5.13;;;17.90;99.90;;;;;;4409357;28;660109;-66
2022/09/14 07:40:22;;;;;;;12.43;4.97;;;17.80;99.90;;;;;;4401935;28;658833;-65
2022/09/14 07:43:09;;;;;;;9.60;5.03;;;17.90;99.90;;;;;;4378522;28;659242;-65
2022/09/14 07:45:56;;;;;;;12.03;5.37;;;18.00;99.90;;;;;;4382560;28;658928;-66
2022/09/14 07:48:43;;;;;;;10.30;5.47;;;17.90;99.90;;;;;;4403927;28;659873;-66
2022/09/14 07:51:31;;;;;;;6.50;4.70;;;18.00;99.90;;;;;;4377042;28;659598;-65
2022/09/14 07:54:18;;;;;;;7.03;4.80;;;18.00;99.90;;;;;;4397876;28;659544;-66
2022/09/14 07:57:07;;;;;;;10.40;4.73;;;18.10;99.90;;;;;;4385215;28;658802;-66
2022/09/14 07:59:54;;;;;;;8.90;4.77;;;18.30;99.90;;;;;;4409349;28;660077;-65
2022/09/14 08:02:41;;;;;;;11.05;5.82;;;18.30;99.90;;;;;;4385992;28;658436;-65
2022/09/14 08:05:28;;;;;;;9.40;5.30;;;18.20;99.90;;;;;;4409005;28;660035;-65
2022/09/14 08:08:15;;;;;;;7.37;5.00;;;18.40;99.90;;;;;;4385043;28;658831;-65
2022/09/14 08:11:06;;;;;;;10.70;5.17;;;18.50;99.90;;;;;;4401786;28;658507;-65
2022/09/14 08:13:56;;;;;;;17.27;5.87;;;18.60;99.90;;;;;;4379938;28;659826;-66
2022/09/14 08:16:43;;;;;;;8.77;5.27;;;18.60;99.90;;;;;;4375687;28;661147;-65
2022/09/14 08:19:30;;;;;;;9.70;5.43;;;18.80;99.90;;;;;;4370369;28;658553;-66
2022/09/14 08:22:17;;;;;;;10.53;4.93;;;19.00;99.90;;;;;;4374271;28;660833;-65
2022/09/14 08:25:06;;;;;;;11.03;5.70;;;18.80;99.90;;;;;;4396350;28;661346;-65
2022/09/14 08:27:53;;;;;;;12.77;6.70;;;19.10;99.90;;;;;;4409040;28;660630;-66
2022/09/14 08:30:42;;;;;;;10.97;5.87;;;19.00;99.90;;;;;;4386700;28;660430;-66
2022/09/14 08:33:30;;;;;;;9.00;5.50;;;19.10;99.90;;;;;;4404379;28;659873;-66
2022/09/14 08:36:21;;;;;;;9.43;5.67;;;19.20;99.90;;;;;;4389801;28;659413;-66
2022/09/14 08:39:09;;;;;;;9.10;5.43;;;19.40;99.90;;;;;;4381343;28;659715;-66
2022/09/14 08:41:59;;;;;;;8.07;5.13;;;19.00;99.90;;;;;;4388406;28;660465;-66
2022/09/14 08:44:49;;;;;;;9.83;5.83;;;19.10;99.90;;;;;;4387476;28;657993;-65
2022/09/14 08:47:38;;;;;;;10.23;5.60;;;19.30;99.90;;;;;;4385640;28;659350;-66
2022/09/14 08:50:27;;;;;;;12.00;5.20;;;18.90;99.90;;;;;;4382831;28;659864;-66
2022/09/14 08:53:14;;;;;;;8.43;5.47;;;18.80;99.90;;;;;;4402593;28;659967;-65
2022/09/14 08:56:03;;;;;;;10.90;5.27;;;19.00;99.90;;;;;;4383277;28;658737;-66
2022/09/14 08:59:24;;;;;;;7.87;5.03;;;19.00;99.90;;;;;;4387223;28;660474;-66
2022/09/14 09:02:21;;;;;;;8.40;4.73;;;19.10;99.90;;;;;;4357718;28;659801;-66
2022/09/14 09:05:23;;;;;;;11.07;4.78;;;19.30;99.90;;;;;;4378811;28;659555;-66
2022/09/14 09:08:16;;;;;;;6.47;3.83;;;19.50;99.90;;;;;;4363052;28;659549;-65
2022/09/14 09:11:04;;;;;;;7.93;4.80;;;19.90;99.90;;;;;;4379417;28;658917;-66
2022/09/14 09:13:51;;;;;;;8.57;4.43;;;19.70;99.90;;;;;;4386555;28;658963;-66
2022/09/14 09:16:38;;;;;;;10.70;4.77;;;19.70;99.90;;;;;;4405157;28;658669;-66
2022/09/14 09:19:28;;;;;;;7.80;4.73;;;19.80;99.90;;;;;;4385226;28;659653;-65
2022/09/14 09:22:18;;;;;;;7.23;4.70;;;19.80;99.90;;;;;;4386381;28;658464;-65
2022/09/14 09:25:06;;;;;;;11.87;4.70;;;20.30;99.90;;;;;;4390101;28;658626;-66
2022/09/14 09:27:54;;;;;;;5.57;3.93;;;20.30;99.90;;;;;;4409498;28;660998;-66
2022/09/14 09:30:41;;;;;;;9.73;4.03;;;20.30;99.90;;;;;;4384490;28;658644;-65
2022/09/14 09:33:29;;;;;;;16.43;5.20;;;19.90;99.90;;;;;;4395841;28;658669;-66
2022/09/14 09:36:16;;;;;;;6.03;4.80;;;20.20;99.90;;;;;;4386394;28;659837;-65
2022/09/14 09:39:04;;;;;;;7.90;4.68;;;20.20;99.90;;;;;;4403602;28;659099;-65
2022/09/14 09:41:56;;;;;;;5.13;4.13;;;20.60;99.90;;;;;;4363887;28;659128;-66
2022/09/14 09:44:54;;;;;;;4.30;2.83;;;20.30;99.90;;;;;;4365740;28;658862;-65
2022/09/14 09:47:41;;;;;;;7.03;4.77;;;20.10;99.90;;;;;;4363361;28;658477;-66
2022/09/14 09:50:28;;;;;;;6.37;3.83;;;20.10;99.90;;;;;;4384231;28;658780;-65
2022/09/14 09:53:16;;;;;;;9.03;4.53;;;20.00;99.90;;;;;;4364800;28;658861;-65
2022/09/14 09:56:05;;;;;;;7.70;4.57;;;19.60;99.90;;;;;;4389594;28;659212;-65
2022/09/14 09:58:52;;;;;;;9.80;4.23;;;19.80;99.90;;;;;;4370474;28;658712;-65
2022/09/14 10:01:39;;;;;;;7.10;4.30;;;20.10;99.90;;;;;;4388088;28;658741;-66
2022/09/14 10:04:28;;;;;;;7.67;4.57;;;20.40;99.90;;;;;;4363622;28;658990;-66
2022/09/14 10:07:19;;;;;;;6.53;3.93;;;20.80;99.90;;;;;;4367681;28;658785;-65
2022/09/14 10:10:07;;;;;;;5.80;4.10;;;21.10;99.90;;;;;;4364651;28;659731;-65
2022/09/14 10:12:56;;;;;;;5.23;3.90;;;20.60;99.90;;;;;;4388595;28;659425;-66
2022/09/14 10:15:44;;;;;;;7.47;4.40;;;20.60;99.90;;;;;;4362822;28;658919;-66
2022/09/14 10:18:31;;;;;;;4.67;3.63;;;20.80;99.90;;;;;;4369996;28;658999;-66
2022/09/14 10:21:18;;;;;;;8.17;3.80;;;20.80;99.90;;;;;;4386195;28;659389;-66
2022/09/14 10:24:07;;;;;;;5.93;3.63;;;20.40;99.90;;;;;;4372567;28;658177;-65
2022/09/14 10:26:54;;;;;;;10.80;3.63;;;20.30;99.90;;;;;;4391873;28;659849;-66
2022/09/14 10:29:43;;;;;;;5.07;3.47;;;20.50;99.90;;;;;;4368539;28;659648;-66
2022/09/14 10:32:30;;;;;;;6.73;3.67;;;20.60;99.90;;;;;;4379892;28;659032;-66
2022/09/14 10:35:17;;;;;;;6.90;4.00;;;20.80;99.90;;;;;;4388827;28;660487;-65
2022/09/14 10:38:15;;;;;;;5.70;4.20;;;20.20;99.90;;;;;;4379977;28;658949;-65
2022/09/14 10:41:23;;;;;;;8.37;3.50;;;20.20;99.90;;;;;;4355234;28;659928;-66
2022/09/14 10:44:46;;;;;;;7.03;3.70;;;20.40;99.90;;;;;;4367519;28;658939;-66
2022/09/14 10:47:56;;;;;;;6.90;3.90;;;19.90;99.90;;;;;;4374478;28;658829;-65
2022/09/14 10:50:51;;;;;;;7.23;4.33;;;19.60;99.90;;;;;;4387442;28;658934;-66
2022/09/14 10:53:50;;;;;;;8.50;3.87;;;19.60;99.90;;;;;;4381349;28;659499;-66
2022/09/14 10:56:44;;;;;;;5.23;3.90;;;19.60;99.90;;;;;;4380907;28;659194;-65
2022/09/14 10:59:32;;;;;;;6.97;3.80;;;19.80;99.90;;;;;;4382336;28;658598;-66
2022/09/14 11:02:31;;;;;;;4.83;3.10;;;19.90;99.90;;;;;;4401273;28;658514;-66
2022/09/14 11:05:22;;;;;;;9.07;3.77;;;19.80;99.90;;;;;;4380938;28;659033;-66
2022/09/14 11:08:14;;;;;;;4.10;3.17;;;19.30;99.90;;;;;;4372033;28;659835;-66
2022/09/14 11:11:15;;;;;;;8.13;3.70;;;19.10;99.90;;;;;;4381793;28;658641;-66
2022/09/14 11:14:09;;;;;;;4.67;3.00;;;19.10;99.90;;;;;;4383939;28;658815;-65
2022/09/14 11:17:04;;;;;;;6.23;3.10;;;19.00;99.90;;;;;;4357280;28;659465;-66
2022/09/14 11:19:54;;;;;;;5.27;3.47;;;19.00;99.90;;;;;;4362808;28;660005;-65
2022/09/14 11:22:46;;;;;;;5.67;3.00;;;18.90;99.90;;;;;;4380270;28;659555;-65
2022/09/14 11:25:39;;;;;;;4.47;3.27;;;18.70;99.90;;;;;;4384820;28;659691;-66
2022/09/14 11:28:28;;;;;;;4.77;3.40;;;18.60;99.90;;;;;;4357350;28;659372;-66
2022/09/14 11:31:18;;;;;;;5.13;3.60;;;18.60;99.90;;;;;;4385773;28;659345;-66
2022/09/14 11:34:11;;;;;;;6.57;3.97;;;18.50;99.90;;;;;;4382780;28;659287;-65
2022/09/14 11:37:01;;;;;;;5.00;3.33;;;18.60;99.90;;;;;;4382941;28;659366;-65
2022/09/14 11:39:52;;;;;;;5.20;3.67;;;18.50;99.90;;;;;;4383262;28;659813;-65
2022/09/14 11:42:43;;;;;;;6.63;4.00;;;18.50;99.90;;;;;;4383329;28;658520;-65
2022/09/14 11:45:32;;;;;;;5.73;3.33;;;18.30;99.90;;;;;;4356119;28;658583;-65
2022/09/14 11:48:21;;;;;;;9.57;3.60;;;18.20;99.90;;;;;;4396542;28;658700;-65
2022/09/14 11:51:14;;;;;;;6.23;3.97;;;18.10;99.90;;;;;;4381371;28;659370;-65
2022/09/14 11:54:01;;;;;;;4.67;3.20;;;18.00;99.90;;;;;;4384596;28;658901;-66
2022/09/14 11:56:50;;;;;;;3.50;2.60;;;18.00;99.90;;;;;;4408103;28;661982;-65
2022/09/14 11:59:49;;;;;;;6.30;3.73;;;17.80;99.90;;;;;;4386126;28;659848;-65
2022/09/14 12:02:57;;;;;;;4.45;3.42;;;17.80;99.90;;;;;;4384513;28;658991;-65
2022/09/14 12:05:44;;;;;;;5.83;4.23;;;17.60;99.90;;;;;;4379807;28;658259;-65
2022/09/14 12:08:39;;;;;;;7.10;4.77;;;17.50;99.90;;;;;;4386033;28;658524;-66
2022/09/14 12:11:30;;;;;;;6.57;5.07;;;17.50;99.90;;;;;;4380811;28;658899;-65
2022/09/14 12:14:34;;;;;;;6.50;5.27;;;17.30;99.90;;;;;;4383189;28;659157;-66
2022/09/14 12:17:23;;;;;;;10.87;6.10;;;17.40;99.90;;;;;;4383434;28;658809;-65
2022/09/14 12:20:41;;;;;;;8.97;6.60;;;17.30;99.90;;;;;;4386774;28;659547;-65
2022/09/14 12:23:50;;;;;;;10.97;6.77;;;17.20;99.90;;;;;;4383287;28;658237;-66
2022/09/14 12:26:37;;;;;;;11.20;6.93;;;17.30;99.90;;;;;;4355445;28;660255;-66
2022/09/14 12:29:31;;;;;;;10.37;7.60;;;17.20;99.90;;;;;;4399338;28;659376;-66
2022/09/14 12:32:39;;;;;;;13.53;8.70;;;17.20;99.90;;;;;;4378959;28;660113;-66
2022/09/14 12:35:46;;;;;;;16.10;9.13;;;16.90;99.90;;;;;;4363080;28;659903;-65
2022/09/14 12:38:43;;;;;;;16.10;9.23;;;16.80;99.90;;;;;;4379884;28;660532;-65
2022/09/14 12:42:10;;;;;;;14.17;9.33;;;16.80;99.90;;;;;;4363533;28;659971;-65
2022/09/14 12:44:58;;;;;;;14.20;8.93;;;16.60;99.90;;;;;;4379912;28;660547;-66
2022/09/14 12:47:54;;;;;;;11.18;8.07;;;16.70;99.90;;;;;;4384881;28;659851;-65
2022/09/14 12:50:41;;;;;;;11.23;8.27;;;16.60;99.90;;;;;;4383806;28;659730;-65
2022/09/14 12:53:29;;;;;;;11.47;7.40;;;16.60;99.90;;;;;;4407102;28;660669;-65
2022/09/14 12:56:18;;;;;;;11.73;8.17;;;16.50;99.90;;;;;;4385361;28;660287;-66
2022/09/14 12:59:07;;;;;;;13.80;8.10;;;16.40;99.90;;;;;;4399905;28;660288;-65
2022/09/14 13:01:58;;;;;;;12.47;8.50;;;16.40;99.90;;;;;;4402764;28;659344;-67
2022/09/14 13:04:46;;;;;;;11.80;8.43;;;16.40;99.90;;;;;;4357477;28;659709;-66
2022/09/14 13:07:36;;;;;;;15.07;8.17;;;16.40;99.90;;;;;;4404896;28;659813;-66
2022/09/14 13:10:25;;;;;;;12.80;8.30;;;16.50;99.90;;;;;;4380306;28;660699;-67
2022/09/14 13:13:15;;;;;;;17.97;9.67;;;16.40;99.90;;;;;;4380058;28;660688;-66
2022/09/14 13:16:03;;;;;;;13.07;8.93;;;16.40;99.90;;;;;;4384376;28;660269;-66
2022/09/14 13:18:59;;;;;;;13.63;9.10;;;16.50;99.90;;;;;;4383093;28;659877;-66
2022/09/14 13:21:47;;;;;;;13.27;8.40;;;16.60;99.90;;;;;;4360847;28;660518;-65
2022/09/14 13:24:37;;;;;;;11.73;7.73;;;16.60;99.90;;;;;;4400083;28;659427;-67
2022/09/14 13:27:25;;;;;;;14.97;8.50;;;16.60;99.90;;;;;;4381320;28;660828;-67
2022/09/14 13:30:19;;;;;;;13.50;8.77;;;16.70;99.90;;;;;;4385281;28;660492;-66
2022/09/14 13:33:06;;;;;;;12.47;8.30;;;16.70;99.90;;;;;;4386994;28;659606;-66
2022/09/14 13:35:55;;;;;;;13.23;8.73;;;16.70;99.90;;;;;;4403322;28;660377;-66
2022/09/14 13:38:42;;;;;;;15.20;10.23;;;16.70;99.90;;;;;;4381234;28;661061;-66
2022/09/14 13:41:30;;;;;;;18.00;11.90;;;16.70;99.90;;;;;;4398995;28;660829;-66
2022/09/14 13:44:17;;;;;;;18.37;13.33;;;16.60;99.90;;;;;;4378614;28;661901;-67
2022/09/14 13:47:05;;;;;;;16.57;12.30;;;16.40;99.90;;;;;;4400979;28;660946;-65
2022/09/14 13:49:53;;;;;;;16.90;12.17;;;16.40;99.90;;;;;;4406422;28;660891;-66
2022/09/14 13:52:42;;;;;;;15.43;11.77;;;16.20;99.90;;;;;;4379113;28;660278;-66
2022/09/14 13:55:41;;;;;;;15.43;11.47;;;16.50;99.90;;;;;;4399951;28;661125;-66
2022/09/14 13:58:28;;;;;;;17.67;11.97;;;16.70;99.90;;;;;;4378060;28;661390;-65
2022/09/14 14:01:24;;;;;;;21.37;13.93;;;16.90;99.90;;;;;;4380210;28;661150;-66
2022/09/14 14:04:25;;;;;;;14.77;11.10;;;17.10;99.90;;;;;;4377512;28;661042;-66
2022/09/14 14:07:17;;;;;;;12.60;8.83;;;17.20;99.90;;;;;;4384971;28;661716;-66
2022/09/14 14:10:21;;;;;;;12.63;9.40;;;17.10;99.90;;;;;;4402001;28;659200;-66
2022/09/14 14:13:08;;;;;;;11.40;7.47;;;17.20;99.90;;;;;;4377984;28;660620;-67
2022/09/14 14:16:11;;;;;;;11.52;7.85;;;17.40;99.90;;;;;;4384561;28;659862;-66
2022/09/14 14:18:59;;;;;;;11.30;6.60;;;17.50;99.90;;;;;;4380463;28;660301;-66
2022/09/14 14:21:47;;;;;;;8.77;6.53;;;17.40;99.90;;;;;;4381819;28;659732;-66
2022/09/14 14:24:35;;;;;;;8.60;5.57;;;17.20;99.90;;;;;;4394947;28;658801;-66
2022/09/14 14:27:29;;;;;;;10.83;7.30;;;17.20;99.90;;;;;;4401529;28;659422;-66